Time;durP1;ratioP1;P1;durP2;ratioP2;P2;SDS_P1;SDS_P2;PMS_P1;PMS_P2;Temp;Humidity;BMP_temperature;BMP_pressure;BME280_temperature;BME280_humidity;BME280_pressure;Samples;Min_cycle;Max_cycle;Signal;HPM_P1;HPM_P2
2024/01/10 00:00:13;;;;;;;16.10;7.83;;;;;;;17.62;45.78;101222.69;4945169;28;20243;-74
2024/01/10 00:02:38;;;;;;;15.47;8.13;;;;;;;17.62;45.77;101216.97;4918194;29;20241;-73
2024/01/10 00:05:04;;;;;;;11.53;7.00;;;;;;;17.65;46.69;101218.28;4917069;28;20211;-74
2024/01/10 00:07:29;;;;;;;16.07;7.17;;;;;;;17.60;46.98;101209.94;4913404;29;20219;-73
2024/01/10 00:09:55;;;;;;;18.23;7.27;;;;;;;17.66;47.45;101206.50;4946694;28;20219;-74
2024/01/10 00:12:21;;;;;;;16.23;6.97;;;;;;;17.67;47.98;101204.47;4926979;29;20212;-74
2024/01/10 00:14:46;;;;;;;14.80;6.33;;;;;;;17.64;48.45;101208.88;4934419;28;20199;-73
2024/01/10 00:17:12;;;;;;;17.67;6.73;;;;;;;17.69;48.26;101202.94;4929184;28;20246;-73
2024/01/10 00:19:37;;;;;;;19.80;7.90;;;;;;;17.66;48.51;101197.94;4933089;29;20286;-74
2024/01/10 00:22:03;;;;;;;10.60;6.13;;;;;;;17.73;48.99;101195.34;4934775;28;20218;-74
2024/01/10 00:24:28;;;;;;;16.50;6.80;;;;;;;17.73;48.72;101185.94;4937642;28;20215;-72
2024/01/10 00:26:55;;;;;;;13.97;7.10;;;;;;;17.67;49.53;101188.19;4936788;29;20215;-73
2024/01/10 00:29:20;;;;;;;11.93;7.17;;;;;;;17.63;48.49;101190.09;4938200;29;20234;-75
2024/01/10 00:31:46;;;;;;;15.47;7.00;;;;;;;17.50;48.34;101179.81;4918202;29;20462;-74
2024/01/10 00:34:11;;;;;;;14.10;7.30;;;;;;;17.25;47.96;101183.72;4914756;28;20226;-74
2024/01/10 00:36:37;;;;;;;21.17;11.63;;;;;;;17.20;46.37;101177.44;4933099;29;20210;-74
2024/01/10 00:39:02;;;;;;;23.63;10.27;;;;;;;17.27;43.86;101187.09;4913720;29;20785;-74
2024/01/10 00:41:27;;;;;;;19.77;11.43;;;;;;;17.36;44.82;101184.13;4918539;29;20222;-73
2024/01/10 00:43:53;;;;;;;16.63;10.50;;;;;;;17.39;43.84;101178.59;4933793;29;20558;-73
2024/01/10 00:46:18;;;;;;;18.57;10.10;;;;;;;17.36;44.28;101169.88;4914632;29;20227;-74
2024/01/10 00:48:44;;;;;;;19.53;10.17;;;;;;;17.38;44.53;101181.75;4943622;28;20217;-74
2024/01/10 00:51:10;;;;;;;16.60;9.80;;;;;;;17.42;44.39;101177.91;4920596;29;20199;-74
2024/01/10 00:53:35;;;;;;;12.90;8.63;;;;;;;17.49;44.60;101183.00;4949893;28;20238;-74
2024/01/10 00:56:01;;;;;;;18.10;9.53;;;;;;;17.52;44.03;101168.88;4945029;28;20513;-75
2024/01/10 00:58:26;;;;;;;23.80;10.13;;;;;;;17.51;44.68;101172.91;4930246;29;20452;-75
2024/01/10 01:00:52;;;;;;;15.13;9.03;;;;;;;17.56;44.39;101177.56;4932252;28;20207;-75
2024/01/10 01:03:17;;;;;;;17.47;10.20;;;;;;;17.50;44.89;101171.25;4903205;28;20201;-76
2024/01/10 01:05:42;;;;;;;17.20;9.50;;;;;;;17.47;44.70;101171.97;4929750;29;20904;-75
2024/01/10 01:08:08;;;;;;;14.90;9.50;;;;;;;17.49;45.01;101169.56;4933213;28;20702;-75
2024/01/10 01:10:33;;;;;;;15.73;9.50;;;;;;;17.47;45.14;101171.13;4932028;29;20559;-75
2024/01/10 01:12:59;;;;;;;15.10;9.30;;;;;;;17.46;45.42;101170.28;4932431;29;20786;-75
2024/01/10 01:15:24;;;;;;;16.20;9.07;;;;;;;17.46;45.49;101167.41;4931752;28;20560;-75
2024/01/10 01:17:50;;;;;;;13.33;8.33;;;;;;;17.50;45.61;101170.44;4912066;29;20695;-76
2024/01/10 01:20:15;;;;;;;15.20;8.83;;;;;;;17.48;45.63;101167.06;4913286;29;20203;-75
2024/01/10 01:22:41;;;;;;;14.27;8.47;;;;;;;17.44;45.66;101164.09;4914271;29;20208;-75
2024/01/10 01:25:06;;;;;;;15.53;8.90;;;;;;;17.47;46.06;101166.25;4916948;29;20223;-75
2024/01/10 01:27:32;;;;;;;11.73;6.90;;;;;;;17.49;46.11;101171.59;4935399;29;20218;-75
2024/01/10 01:29:57;;;;;;;15.70;8.20;;;;;;;17.44;45.80;101172.66;4934135;29;20218;-75
2024/01/10 01:32:23;;;;;;;14.77;7.63;;;;;;;17.49;45.52;101175.28;4918331;29;20238;-75
2024/01/10 01:34:48;;;;;;;15.77;8.17;;;;;;;17.47;45.60;101174.81;4882538;29;20208;-75
2024/01/10 01:37:14;;;;;;;15.33;8.70;;;;;;;17.40;46.24;101180.25;4910071;29;20234;-75
2024/01/10 01:39:39;;;;;;;13.93;8.07;;;;;;;17.39;46.45;101172.03;4931934;28;20562;-75
2024/01/10 01:42:04;;;;;;;14.57;8.20;;;;;;;17.35;46.37;101171.88;4916677;29;20573;-75
2024/01/10 01:44:31;;;;;;;11.40;7.80;;;;;;;17.34;46.68;101175.06;4932899;29;20730;-75
2024/01/10 01:46:57;;;;;;;12.37;7.27;;;;;;;17.33;46.75;101176.28;4948476;28;20218;-75
2024/01/10 01:49:24;;;;;;;13.53;8.00;;;;;;;17.32;46.70;101177.47;4934650;28;21320;-75
2024/01/10 01:51:50;;;;;;;15.40;8.00;;;;;;;17.32;46.35;101166.91;4969115;28;20208;-75
2024/01/10 01:54:15;;;;;;;15.03;7.63;;;;;;;17.30;46.66;101174.94;4910271;29;20821;-76
2024/01/10 01:56:40;;;;;;;18.57;8.47;;;;;;;17.31;46.53;101165.19;4930074;29;20960;-75
2024/01/10 01:59:07;;;;;;;13.00;7.13;;;;;;;17.28;46.53;101177.34;4914544;29;20236;-75
2024/01/10 02:01:32;;;;;;;13.53;7.97;;;;;;;17.31;45.88;101165.19;4931833;28;20470;-71
2024/01/10 02:03:59;;;;;;;11.00;7.10;;;;;;;17.30;46.73;101169.25;4918865;29;20223;-71
2024/01/10 02:06:24;;;;;;;15.20;8.27;;;;;;;17.29;46.75;101166.75;4918839;29;20246;-71
2024/01/10 02:08:52;;;;;;;11.80;7.23;;;;;;;17.29;46.68;101178.16;4915887;29;20478;-71
2024/01/10 02:11:17;;;;;;;12.33;7.67;;;;;;;17.27;47.11;101172.81;4919335;29;20223;-71
2024/01/10 02:13:42;;;;;;;12.83;7.37;;;;;;;17.29;46.48;101179.00;4934795;28;20455;-73
2024/01/10 02:16:09;;;;;;;14.70;8.00;;;;;;;17.27;46.94;101180.53;4917818;29;20206;-71
2024/01/10 02:18:34;;;;;;;11.30;7.00;;;;;;;17.30;46.58;101174.94;4932872;29;20207;-71
2024/01/10 02:21:00;;;;;;;11.17;7.03;;;;;;;17.27;46.50;101178.53;4932947;28;20552;-71
2024/01/10 02:23:26;;;;;;;12.83;6.93;;;;;;;17.27;46.75;101181.38;4947872;28;20236;-73
2024/01/10 02:25:51;;;;;;;12.33;7.13;;;;;;;17.27;47.52;101183.38;4928099;28;20632;-72
2024/01/10 02:28:17;;;;;;;15.33;7.27;;;;;;;17.21;46.93;101185.63;4935190;29;20238;-71
2024/01/10 02:30:42;;;;;;;14.00;7.60;;;;;;;17.25;46.79;101186.59;4946250;28;20207;-71
2024/01/10 02:33:07;;;;;;;10.67;6.73;;;;;;;17.21;47.38;101177.06;4915889;29;20991;-72
2024/01/10 02:35:33;;;;;;;11.23;7.00;;;;;;;17.19;47.12;101182.28;4933928;28;20202;-72
2024/01/10 02:37:59;;;;;;;11.27;6.70;;;;;;;17.24;46.26;101175.53;4934313;29;20583;-71
2024/01/10 02:40:24;;;;;;;14.57;8.23;;;;;;;17.23;46.68;101173.84;4929835;29;20702;-73
2024/01/10 02:42:51;;;;;;;13.13;7.93;;;;;;;17.31;46.78;101175.81;4926736;29;20267;-71
2024/01/10 02:45:19;;;;;;;13.50;7.37;;;;;;;17.28;46.69;101165.91;4932314;29;20215;-72
2024/01/10 02:47:45;;;;;;;13.60;7.40;;;;;;;17.28;46.74;101168.78;4930024;29;20838;-73
2024/01/10 02:50:10;;;;;;;16.37;8.00;;;;;;;17.24;46.88;101164.09;4935740;28;20515;-72
2024/01/10 02:52:35;;;;;;;10.10;6.40;;;;;;;17.26;47.04;101156.84;4913966;29;20295;-71
2024/01/10 02:55:01;;;;;;;11.17;6.83;;;;;;;17.22;46.93;101161.63;4926558;29;20649;-72
2024/01/10 02:57:26;;;;;;;10.97;6.03;;;;;;;17.21;46.96;101159.13;4898900;29;20572;-71
2024/01/10 02:59:52;;;;;;;12.43;7.50;;;;;;;17.19;46.99;101164.31;4882449;29;21028;-71
2024/01/10 03:02:17;;;;;;;14.37;7.27;;;;;;;17.20;46.91;101166.00;4918578;29;20208;-73
2024/01/10 03:04:44;;;;;;;11.70;6.33;;;;;;;17.18;47.66;101169.22;4880138;29;20223;-72
2024/01/10 03:07:09;;;;;;;10.83;7.03;;;;;;;17.22;46.59;101167.34;4907630;29;20200;-71
2024/01/10 03:09:35;;;;;;;14.27;7.10;;;;;;;17.20;46.88;101169.69;4880949;29;21188;-71
2024/01/10 03:12:00;;;;;;;12.37;7.23;;;;;;;17.23;46.54;101179.56;4864203;29;20212;-71
2024/01/10 03:14:26;;;;;;;11.90;7.27;;;;;;;17.24;46.80;101175.53;4889489;29;20215;-71
2024/01/10 03:16:52;;;;;;;9.60;6.73;;;;;;;17.23;47.31;101180.41;4913613;29;20196;-76
2024/01/10 03:19:18;;;;;;;11.47;7.17;;;;;;;17.22;46.96;101184.47;4896517;29;20211;-75
2024/01/10 03:21:43;;;;;;;10.00;6.23;;;;;;;17.17;47.06;101178.97;4912953;29;20467;-76
2024/01/10 03:24:09;;;;;;;10.80;6.47;;;;;;;17.22;46.77;101180.75;4878507;29;20260;-75
2024/01/10 03:26:35;;;;;;;9.53;6.33;;;;;;;17.17;46.83;101178.97;4891599;29;20219;-74
2024/01/10 03:29:00;;;;;;;11.87;6.50;;;;;;;17.18;47.18;101183.47;4929287;29;20244;-75
2024/01/10 03:31:28;;;;;;;10.53;6.50;;;;;;;17.18;47.50;101179.78;4910451;29;20476;-75
2024/01/10 03:33:53;;;;;;;13.30;7.67;;;;;;;17.17;47.04;101172.41;4912354;29;20218;-75
2024/01/10 03:36:19;;;;;;;10.37;6.13;;;;;;;17.18;46.74;101171.22;4913057;29;20932;-75
2024/01/10 03:38:44;;;;;;;9.70;6.53;;;;;;;17.19;46.79;101173.72;4909480;29;20219;-75
2024/01/10 03:41:17;;;;;;;11.93;6.60;;;;;;;17.18;47.40;101172.06;4914265;29;20655;-75
2024/01/10 03:43:42;;;;;;;10.47;6.43;;;;;;;17.15;46.95;101166.22;4910211;29;20241;-75
2024/01/10 03:46:08;;;;;;;9.63;6.07;;;;;;;17.18;46.73;101169.22;4913599;29;20629;-75
2024/01/10 03:48:34;;;;;;;11.37;6.67;;;;;;;17.21;46.66;101177.06;4930330;28;20231;-75
2024/01/10 03:50:59;;;;;;;11.47;7.23;;;;;;;17.15;47.62;101177.66;4929005;29;20497;-75
2024/01/10 03:53:25;;;;;;;13.50;6.70;;;;;;;17.24;46.68;101175.53;4933218;29;20207;-75
2024/01/10 03:55:50;;;;;;;11.83;7.03;;;;;;;17.20;47.35;101175.41;4928467;29;20572;-75
2024/01/10 03:58:16;;;;;;;11.87;7.07;;;;;;;17.22;46.80;101173.03;4911649;29;20652;-76
2024/01/10 04:00:41;;;;;;;10.17;6.50;;;;;;;17.18;47.13;101174.06;4911683;29;20211;-75
2024/01/10 04:03:06;;;;;;;12.60;7.23;;;;;;;17.20;47.11;101175.41;4936485;28;20216;-75
2024/01/10 04:05:32;;;;;;;10.10;5.80;;;;;;;17.17;46.73;101172.41;4912605;29;20295;-75
2024/01/10 04:07:58;;;;;;;8.73;6.00;;;;;;;17.16;46.84;101179.31;4944085;28;20206;-75
2024/01/10 04:10:23;;;;;;;10.57;6.37;;;;;;;17.15;47.00;101178.47;4932444;29;20236;-75
2024/01/10 04:12:49;;;;;;;10.77;6.67;;;;;;;17.11;47.20;101186.03;4948901;28;20219;-75
2024/01/10 04:15:14;;;;;;;8.60;5.20;;;;;;;17.14;46.75;101176.81;4932723;29;20207;-75
2024/01/10 04:17:40;;;;;;;10.50;6.70;;;;;;;17.17;46.86;101181.81;4923487;29;20266;-75
2024/01/10 04:20:06;;;;;;;9.03;6.73;;;;;;;17.15;46.76;101181.31;4949429;28;20210;-75
2024/01/10 04:22:32;;;;;;;12.63;7.20;;;;;;;17.13;46.67;101183.69;4936755;28;21021;-75
2024/01/10 04:24:57;;;;;;;10.77;6.93;;;;;;;17.13;47.45;101183.69;4930271;29;20455;-71
2024/01/10 04:27:23;;;;;;;10.17;6.57;;;;;;;17.18;47.03;101177.78;4916756;28;20211;-70
2024/01/10 04:29:48;;;;;;;9.17;6.30;;;;;;;17.19;46.68;101172.88;4951172;28;20218;-71
2024/01/10 04:32:14;;;;;;;11.00;6.57;;;;;;;17.21;46.43;101173.38;4951107;28;20199;-71
2024/01/10 04:34:39;;;;;;;10.20;6.37;;;;;;;17.14;46.90;101173.09;4916447;29;20655;-72
2024/01/10 04:37:06;;;;;;;10.63;6.33;;;;;;;17.21;46.42;101177.06;4951199;28;20203;-71
2024/01/10 04:39:32;;;;;;;10.80;6.23;;;;;;;17.15;47.21;101172.75;4932740;29;20297;-73
2024/01/10 04:41:58;;;;;;;10.87;6.67;;;;;;;17.19;46.91;101178.59;4951637;28;20447;-71
2024/01/10 04:44:24;;;;;;;10.43;6.10;;;;;;;17.17;47.12;101180.97;4933350;29;20424;-71
2024/01/10 04:46:49;;;;;;;12.47;6.80;;;;;;;17.18;46.60;101177.78;4921429;29;20226;-71
2024/01/10 04:49:14;;;;;;;10.60;6.23;;;;;;;17.21;47.05;101176.25;4929698;29;20475;-71
2024/01/10 04:51:40;;;;;;;8.20;5.70;;;;;;;17.16;46.86;101171.56;4915715;29;20204;-70
2024/01/10 04:54:05;;;;;;;9.00;6.00;;;;;;;17.16;47.27;101167.91;4920022;29;20963;-70
2024/01/10 04:56:31;;;;;;;9.13;5.67;;;;;;;17.11;47.57;101171.78;4915690;29;20203;-71
2024/01/10 04:58:56;;;;;;;12.80;5.77;;;;;;;17.22;46.70;101166.50;4931653;29;20251;-70
2024/01/10 05:01:22;;;;;;;9.90;7.10;;;;;;;17.19;46.67;101170.03;4934676;29;20246;-72
2024/01/10 05:03:47;;;;;;;10.63;6.03;;;;;;;17.21;46.86;101167.69;4929426;29;20600;-71
2024/01/10 05:06:13;;;;;;;10.40;6.40;;;;;;;17.22;46.93;101170.19;4919694;29;20214;-72
2024/01/10 05:08:38;;;;;;;10.13;6.23;;;;;;;17.20;46.54;101172.53;4931670;29;20203;-71
2024/01/10 05:11:04;;;;;;;9.10;5.50;;;;;;;17.26;46.42;101176.03;4917756;29;20540;-74
2024/01/10 05:13:29;;;;;;;9.40;5.50;;;;;;;17.27;46.54;101171.97;4912092;29;20573;-71
2024/01/10 05:15:54;;;;;;;10.20;6.30;;;;;;;17.22;46.85;101175.91;4912208;29;20219;-71
2024/01/10 05:18:20;;;;;;;10.50;5.83;;;;;;;17.30;46.17;101163.53;4915547;29;20218;-71
2024/01/10 05:20:46;;;;;;;10.13;6.10;;;;;;;17.24;46.16;101164.94;4915666;29;20215;-71
2024/01/10 05:23:11;;;;;;;8.93;6.03;;;;;;;17.24;46.77;101169.81;4933039;29;20207;-71
2024/01/10 05:25:37;;;;;;;10.20;5.67;;;;;;;17.23;46.61;101168.16;4908095;29;20545;-71
2024/01/10 05:28:02;;;;;;;9.37;5.80;;;;;;;17.21;46.51;101167.69;4899678;29;20208;-71
2024/01/10 05:30:28;;;;;;;10.20;6.07;;;;;;;17.20;46.87;101175.41;4897110;29;20212;-70
2024/01/10 05:32:53;;;;;;;9.10;5.50;;;;;;;17.20;46.61;101175.41;4913415;29;20692;-72
2024/01/10 05:35:19;;;;;;;8.67;5.80;;;;;;;17.20;46.71;101169.69;4912540;29;20294;-75
2024/01/10 05:37:44;;;;;;;10.83;6.43;;;;;;;17.25;46.78;101171.50;4915650;29;20230;-75
2024/01/10 05:40:10;;;;;;;8.60;5.50;;;;;;;17.21;46.46;101165.63;4928514;29;20238;-75
2024/01/10 05:42:37;;;;;;;12.40;7.50;;;;;;;17.21;46.74;101176.25;4914727;29;20207;-75
2024/01/10 05:45:03;;;;;;;11.07;6.67;;;;;;;17.19;46.83;101172.88;4912421;29;20214;-76
2024/01/10 05:47:29;;;;;;;11.00;6.13;;;;;;;17.19;46.78;101173.72;4895659;29;20460;-75
2024/01/10 05:49:54;;;;;;;8.70;5.33;;;;;;;17.19;46.96;101173.72;4921615;29;20992;-75
2024/01/10 05:52:22;;;;;;;10.67;6.10;;;;;;;17.18;46.43;101169.22;4927281;29;20297;-75
2024/01/10 05:54:48;;;;;;;10.37;5.83;;;;;;;17.19;46.49;101173.72;4930304;29;20577;-75
2024/01/10 05:57:14;;;;;;;10.17;6.03;;;;;;;17.18;46.47;101180.63;4903609;29;20471;-75
2024/01/10 05:59:39;;;;;;;14.77;6.73;;;;;;;17.17;46.71;101192.38;4919810;29;20442;-75
2024/01/10 06:02:04;;;;;;;9.70;6.30;;;;;;;17.17;46.43;101180.97;4918275;29;20215;-75
2024/01/10 06:04:31;;;;;;;9.37;6.03;;;;;;;17.18;46.65;101180.63;4931293;29;20267;-75
2024/01/10 06:07:00;;;;;;;11.17;7.03;;;;;;;17.18;46.81;101185.50;4915486;29;20274;-75
2024/01/10 06:09:25;;;;;;;13.70;6.83;;;;;;;17.13;46.94;101175.13;4930639;29;20444;-75
2024/01/10 06:11:50;;;;;;;10.43;6.50;;;;;;;17.20;46.90;101174.56;4914140;29;20490;-75
2024/01/10 06:14:16;;;;;;;10.57;6.00;;;;;;;17.25;46.29;101174.34;4915509;29;20210;-75
2024/01/10 06:16:42;;;;;;;12.50;6.50;;;;;;;17.23;46.37;101174.69;4901397;29;20208;-75
2024/01/10 06:19:07;;;;;;;15.33;6.50;;;;;;;17.26;46.25;101176.03;4923648;29;20219;-75
2024/01/10 06:21:33;;;;;;;10.00;6.73;;;;;;;17.29;46.05;101172.44;4906744;29;20207;-75
2024/01/10 06:23:58;;;;;;;9.97;6.50;;;;;;;17.30;46.50;101177.81;4927776;29;20204;-76
2024/01/10 06:26:24;;;;;;;10.90;6.03;;;;;;;17.27;45.96;101180.53;4918411;29;21014;-75
2024/01/10 06:28:49;;;;;;;10.47;6.67;;;;;;;17.32;46.27;101183.16;4930799;29;20212;-76
2024/01/10 06:31:14;;;;;;;9.37;6.00;;;;;;;17.29;45.99;101189.56;4910839;29;20236;-75
2024/01/10 06:33:40;;;;;;;12.20;6.33;;;;;;;17.26;46.13;101191.09;4915302;29;20207;-75
2024/01/10 06:36:05;;;;;;;10.07;6.93;;;;;;;17.31;46.21;101188.03;4931869;29;20207;-75
2024/01/10 06:38:31;;;;;;;12.83;7.40;;;;;;;17.34;45.94;101190.19;4948859;29;20392;-75
2024/01/10 06:40:56;;;;;;;11.10;6.17;;;;;;;17.31;46.00;101195.78;4926002;29;20199;-75
2024/01/10 06:43:22;;;;;;;18.10;6.57;;;;;;;17.31;46.32;101201.47;4913823;29;20203;-75
2024/01/10 06:45:48;;;;;;;9.77;6.00;;;;;;;17.23;46.84;101206.09;4922724;29;20220;-74
2024/01/10 06:48:13;;;;;;;10.20;6.40;;;;;;;17.29;46.12;101196.13;4910091;29;20223;-74
2024/01/10 06:50:39;;;;;;;12.10;6.60;;;;;;;17.29;46.14;101201.84;4916313;29;20298;-74
2024/01/10 06:53:04;;;;;;;10.70;6.90;;;;;;;17.22;46.19;101200.72;4929378;29;20207;-75
2024/01/10 06:55:30;;;;;;;10.63;6.30;;;;;;;17.27;46.23;101198.50;4913939;29;20210;-74
2024/01/10 06:57:55;;;;;;;9.60;6.57;;;;;;;17.33;46.00;101196.25;4932952;28;20204;-74
2024/01/10 07:00:21;;;;;;;10.40;6.50;;;;;;;17.25;46.09;101200.03;4941422;29;20218;-74
2024/01/10 07:02:47;;;;;;;10.63;6.27;;;;;;;17.21;46.47;101205.59;4917546;29;20223;-74
2024/01/10 07:05:12;;;;;;;8.50;5.27;;;;;;;17.23;46.69;101213.81;4941084;28;20462;-74
2024/01/10 07:07:37;;;;;;;9.60;6.80;;;;;;;17.27;46.44;101209.06;4937865;29;20722;-74
2024/01/10 07:10:04;;;;;;;10.60;5.97;;;;;;;17.24;46.38;101209.75;4929325;29;20279;-74
2024/01/10 07:12:31;;;;;;;11.10;6.30;;;;;;;17.24;46.15;101206.91;4933403;29;20231;-74
2024/01/10 07:14:56;;;;;;;10.60;6.17;;;;;;;17.24;46.48;101210.59;4923143;29;20451;-74
2024/01/10 07:17:22;;;;;;;10.30;6.50;;;;;;;17.21;46.47;101204.78;4918890;29;20465;-74
2024/01/10 07:19:48;;;;;;;9.07;6.20;;;;;;;17.21;46.49;101216.19;4932291;29;20235;-74
2024/01/10 07:22:14;;;;;;;9.37;6.07;;;;;;;17.21;46.88;101213.34;4933570;28;20234;-74
2024/01/10 07:24:39;;;;;;;9.63;5.80;;;;;;;17.20;46.36;101228.78;4964406;28;20210;-74
2024/01/10 07:27:06;;;;;;;10.33;6.23;;;;;;;17.22;46.35;101224.41;4931464;29;20226;-74
2024/01/10 07:29:31;;;;;;;9.33;6.43;;;;;;;17.25;46.51;101223.69;4945930;28;20828;-74
2024/01/10 07:31:57;;;;;;;11.03;6.10;;;;;;;17.20;46.46;101232.47;4921203;29;20459;-74
2024/01/10 07:34:22;;;;;;;9.00;6.00;;;;;;;17.20;46.86;101225.94;4927547;28;20210;-74
2024/01/10 07:36:48;;;;;;;10.37;5.97;;;;;;;17.23;46.54;101239.50;4931107;29;20207;-74
2024/01/10 07:39:18;;;;;;;10.40;7.00;;;;;;;17.18;46.88;101234.84;4927716;29;20226;-73
2024/01/10 07:41:46;;;;;;;9.20;6.43;;;;;;;17.25;46.42;101243.66;4945964;29;20238;-74
2024/01/10 07:44:12;;;;;;;10.80;6.00;;;;;;;17.26;46.71;101241.66;4928002;28;20549;-73
2024/01/10 07:46:38;;;;;;;12.80;6.07;;;;;;;17.25;46.05;101240.81;4921874;29;20479;-74
2024/01/10 07:49:04;;;;;;;9.27;6.03;;;;;;;17.34;46.19;101237.88;4931189;29;20805;-73
2024/01/10 07:51:30;;;;;;;9.03;6.07;;;;;;;17.31;46.21;101239.41;4931142;28;20987;-74
2024/01/10 07:53:55;;;;;;;18.37;11.40;;;;;;;16.76;40.39;101255.97;4952985;28;20470;-75
2024/01/10 07:56:21;;;;;;;26.37;15.90;;;;;;;15.45;33.02;101253.47;4958549;28;20195;-74
2024/01/10 07:58:46;;;;;;;26.73;16.80;;;;;;;14.95;33.53;101262.84;4922005;29;20206;-72
2024/01/10 08:01:12;;;;;;;28.73;16.03;;;;;;;15.81;36.01;101262.44;4942821;29;20211;-72
2024/01/10 08:03:37;;;;;;;28.77;17.97;;;;;;;17.30;32.54;101249.16;4914555;29;20210;-76
2024/01/10 08:06:03;;;;;;;37.23;20.00;;;;;;;17.41;33.09;101241.84;4936361;28;21993;-76
2024/01/10 08:08:29;;;;;;;32.30;18.60;;;;;;;17.88;33.41;101248.94;4928678;28;20211;-75
2024/01/10 08:10:56;;;;;;;29.73;17.83;;;;;;;18.50;33.78;101240.91;4909464;28;20227;-76
2024/01/10 08:13:21;;;;;;;28.00;15.63;;;;;;;18.89;34.55;101240.16;4911911;28;20226;-75
2024/01/10 08:15:46;;;;;;;25.63;15.83;;;;;;;19.16;35.25;101230.78;4932246;28;20490;-74
2024/01/10 08:18:13;;;;;;;27.30;16.73;;;;;;;19.49;34.70;101237.13;4943991;29;20211;-74
2024/01/10 08:20:39;;;;;;;24.77;14.33;;;;;;;19.49;35.57;101242.84;4932790;29;20247;-74
2024/01/10 08:23:05;;;;;;;23.20;14.53;;;;;;;19.47;36.67;101245.22;4933928;29;20462;-75
2024/01/10 08:25:30;;;;;;;21.77;13.33;;;;;;;19.35;37.33;101245.28;4934910;29;20226;-75
2024/01/10 08:27:57;;;;;;;22.70;14.70;;;;;;;19.26;38.04;101255.25;4934501;29;20203;-75
2024/01/10 08:30:25;;;;;;;22.70;14.20;;;;;;;19.18;38.12;101253.31;4923562;29;20239;-73
2024/01/10 08:32:52;;;;;;;24.00;14.97;;;;;;;19.16;38.95;101255.72;4934980;28;20485;-73
2024/01/10 08:35:17;;;;;;;19.43;12.30;;;;;;;19.08;38.95;101260.38;4923658;29;20470;-71
2024/01/10 08:37:44;;;;;;;21.63;13.00;;;;;;;19.00;39.22;101263.38;4925805;29;20470;-75
2024/01/10 08:40:11;;;;;;;21.27;13.03;;;;;;;18.63;37.79;101262.59;4938637;28;20478;-75
2024/01/10 08:42:38;;;;;;;23.27;14.40;;;;;;;18.17;40.61;101263.00;4948490;28;20453;-76
2024/01/10 08:45:04;;;;;;;19.70;13.60;;;;;;;17.94;37.71;101264.66;4934937;29;20450;-76
2024/01/10 08:47:32;;;;;;;20.60;13.17;;;;;;;17.83;35.46;101260.56;4932455;29;20466;-75
2024/01/10 08:49:58;;;;;;;23.53;13.70;;;;;;;17.97;36.11;101255.34;4949212;28;20576;-75
2024/01/10 08:52:23;;;;;;;23.40;13.80;;;;;;;18.04;37.74;101264.19;4935612;28;20582;-74
2024/01/10 08:54:49;;;;;;;21.00;13.47;;;;;;;18.12;37.92;101260.38;4965898;28;20446;-75
2024/01/10 08:57:14;;;;;;;24.83;13.50;;;;;;;18.13;38.49;101259.22;4952513;28;20214;-76
2024/01/10 08:59:43;;;;;;;21.60;12.33;;;;;;;18.03;39.50;101255.97;4923784;29;20199;-76
2024/01/10 09:02:08;;;;;;;20.80;12.80;;;;;;;17.84;40.33;101255.69;4950919;28;20211;-75
2024/01/10 09:04:33;;;;;;;20.30;12.07;;;;;;;17.77;40.53;101262.00;4950888;28;20525;-78
2024/01/10 09:06:59;;;;;;;19.30;12.60;;;;;;;17.81;40.71;101264.97;4933447;28;20250;-73
2024/01/10 09:09:24;;;;;;;21.27;12.37;;;;;;;17.83;41.16;101271.16;4920926;29;20220;-76
2024/01/10 09:11:50;;;;;;;18.03;11.27;;;;;;;17.69;42.04;101267.78;4950661;28;20214;-71
2024/01/10 09:14:15;;;;;;;16.17;10.40;;;;;;;17.67;41.42;101264.44;4937770;28;20222;-74
2024/01/10 09:16:41;;;;;;;19.37;10.63;;;;;;;17.58;42.69;101278.81;4921546;29;20199;-74
2024/01/10 09:19:06;;;;;;;17.80;10.60;;;;;;;17.52;42.73;101274.53;4933914;29;20210;-75
2024/01/10 09:21:31;;;;;;;16.80;11.23;;;;;;;17.56;42.90;101272.59;4935136;29;20230;-76
2024/01/10 09:23:57;;;;;;;16.23;10.60;;;;;;;17.51;43.45;101278.53;4934602;29;20231;-75
2024/01/10 09:26:23;;;;;;;17.43;10.60;;;;;;;17.57;45.41;101279.16;4945474;29;20218;-73
2024/01/10 09:28:48;;;;;;;17.93;10.27;;;;;;;17.51;45.02;101284.25;4951545;28;20203;-71
2024/01/10 09:31:14;;;;;;;16.00;10.53;;;;;;;17.56;44.86;101281.16;4934739;29;20207;-79
2024/01/10 09:33:40;;;;;;;21.37;11.83;;;;;;;17.50;43.93;101287.47;4936175;29;20199;-74
2024/01/10 09:36:05;;;;;;;19.23;11.03;;;;;;;17.42;43.66;101286.38;4934544;29;20270;-76
2024/01/10 09:38:37;;;;;;;25.73;11.60;;;;;;;17.38;44.34;101284.50;4935678;29;20458;-75
2024/01/10 09:41:03;;;;;;;20.00;12.20;;;;;;;17.29;42.69;101293.16;4940058;28;20283;-74
2024/01/10 09:43:29;;;;;;;21.87;11.50;;;;;;;17.34;43.57;101278.66;4926521;29;20462;-75
2024/01/10 09:45:55;;;;;;;23.40;12.70;;;;;;;17.39;45.33;101298.47;4946963;28;20214;-75
2024/01/10 09:48:20;;;;;;;29.43;12.53;;;;;;;17.49;45.19;101295.19;4912126;29;20459;-71
2024/01/10 09:50:46;;;;;;;21.53;12.00;;;;;;;17.43;44.44;101299.44;4918566;29;20256;-69
2024/01/10 09:53:26;;;;;;;20.17;11.50;;;;;;;17.36;44.66;101287.72;4880845;29;20291;-69
2024/01/10 09:55:52;;;;;;;25.93;12.23;;;;;;;17.46;44.46;101290.16;4918760;29;20199;-69
2024/01/10 09:58:17;;;;;;;21.37;11.33;;;;;;;17.52;44.17;101285.94;4915409;29;21295;-69
2024/01/10 10:00:43;;;;;;;21.43;11.90;;;;;;;17.53;44.42;101293.31;4912380;29;20463;-68
2024/01/10 10:03:12;;;;;;;18.10;10.90;;;;;;;17.59;44.71;101288.19;4931793;29;20248;-71
2024/01/10 10:05:37;;;;;;;21.43;11.10;;;;;;;17.64;44.69;101288.84;4898316;29;20207;-70
2024/01/10 10:08:04;;;;;;;24.47;11.20;;;;;;;17.70;44.53;101295.16;4915310;29;20443;-71
2024/01/10 10:10:30;;;;;;;20.23;10.70;;;;;;;17.70;44.56;101296.00;4914642;29;21137;-70
2024/01/10 10:12:55;;;;;;;17.33;9.90;;;;;;;17.77;44.32;101296.28;4895666;29;20500;-72
2024/01/10 10:15:21;;;;;;;19.77;10.83;;;;;;;17.71;44.63;101288.28;4926304;29;20557;-74
2024/01/10 10:17:48;;;;;;;17.83;10.10;;;;;;;17.64;45.28;101294.53;4908419;29;20216;-73
2024/01/10 10:20:27;;;;;;;17.30;9.20;;;;;;;17.67;45.28;101290.16;4931062;28;21002;-74
2024/01/10 10:23:02;;;;;;;18.33;9.60;;;;;;;17.73;44.96;101292.44;4913535;29;20823;-74
2024/01/10 10:25:35;;;;;;;16.77;9.07;;;;;;;17.73;45.02;101300.16;4881217;29;20571;-74
2024/01/10 10:28:02;;;;;;;18.20;9.80;;;;;;;17.70;45.35;101296.00;4894108;29;20504;-74
2024/01/10 10:30:28;;;;;;;20.40;10.30;;;;;;;17.66;45.67;101297.88;4920593;29;20924;-74
2024/01/10 10:32:54;;;;;;;18.60;9.03;;;;;;;17.67;46.13;101298.72;4900701;29;20535;-74
2024/01/10 10:35:20;;;;;;;17.93;9.27;;;;;;;17.62;46.00;101298.94;4863974;29;20204;-74
2024/01/10 10:37:48;;;;;;;13.77;9.40;;;;;;;17.65;45.66;101301.91;4880241;29;20844;-74
2024/01/10 10:40:14;;;;;;;15.57;8.40;;;;;;;17.67;46.54;101310.13;4912408;29;20259;-74
2024/01/10 10:42:43;;;;;;;14.73;8.27;;;;;;;17.67;45.72;101310.13;4932241;29;20447;-73
2024/01/10 10:45:09;;;;;;;14.87;9.17;;;;;;;17.65;46.38;101301.09;4918479;29;20199;-73
2024/01/10 10:47:36;;;;;;;14.67;8.90;;;;;;;17.65;46.54;101296.22;4918730;29;20467;-73
2024/01/10 10:50:03;;;;;;;16.20;9.10;;;;;;;17.65;46.77;101290.50;4892251;29;20513;-74
2024/01/10 10:52:28;;;;;;;15.30;8.90;;;;;;;17.67;47.10;101305.28;4949607;28;20913;-74
2024/01/10 10:54:55;;;;;;;13.33;8.23;;;;;;;17.66;46.57;101303.59;4937720;28;20449;-73
2024/01/10 10:57:20;;;;;;;16.20;7.80;;;;;;;17.63;47.07;101292.88;4931755;28;20223;-74
2024/01/10 10:59:45;;;;;;;14.73;8.13;;;;;;;17.63;46.75;101295.72;4924344;28;20442;-75
2024/01/10 11:02:11;;;;;;;14.23;7.97;;;;;;;17.64;46.61;101285.97;4936607;28;20211;-73
2024/01/10 11:04:36;;;;;;;13.33;7.53;;;;;;;17.65;46.83;101289.69;4938523;29;20211;-74
2024/01/10 11:07:02;;;;;;;13.10;7.97;;;;;;;17.66;46.61;101280.75;4934663;28;20273;-74
2024/01/10 11:09:28;;;;;;;13.50;7.80;;;;;;;17.68;46.94;101286.94;4934684;28;20203;-73